Time;durP1;ratioP1;P1;durP2;ratioP2;P2;SDS_P1;SDS_P2;PMS_P1;PMS_P2;Temp;Humidity;BMP_temperature;BMP_pressure;BME280_temperature;BME280_humidity;BME280_pressure;Samples;Min_cycle;Max_cycle;Signal;HPM_P1;HPM_P2
2023/12/30 00:00:26;;;;;;;;;6.33;5.00;;;;;;;;5098191;27;46133;-71
2023/12/30 00:02:52;;;;;;;;;4.50;3.75;;;;;;;;5097731;27;46188;-71
2023/12/30 00:05:17;;;;;;;;;4.67;4.00;;;;;;;;5097874;27;45485;-71
2023/12/30 00:07:43;;;;;;;;;5.67;5.00;;;;;;;;5097713;27;45457;-71
2023/12/30 00:10:09;;;;;;;;;5.00;5.00;;;;;;;;5098310;27;45308;-71
2023/12/30 00:12:34;;;;;;;;;5.33;4.67;;;;;;;;5097389;27;45607;-71
2023/12/30 00:14:59;;;;;;;;;6.00;5.00;;;;;;;;5097390;27;45453;-71
2023/12/30 00:17:25;;;;;;;;;4.00;4.00;;;;;;;;5097774;27;45380;-71
2023/12/30 00:19:53;;;;;;;;;3.00;3.00;;;;;;;;5097749;27;45339;-71
2023/12/30 00:22:18;;;;;;;;;4.00;3.00;;;;;;;;5097531;27;46110;-71
2023/12/30 00:24:43;;;;;;;;;3.33;3.00;;;;;;;;5097449;27;45375;-71
2023/12/30 00:27:09;;;;;;;;;3.33;2.00;;;;;;;;5097881;27;45435;-71
2023/12/30 00:29:37;;;;;;;;;2.00;2.00;;;;;;;;5097648;27;45456;-71
2023/12/30 00:32:03;;;;;;;;;1.00;1.00;;;;;;;;5097281;27;45288;-71
2023/12/30 00:34:31;;;;;;;;;2.00;2.00;;;;;;;;5097189;27;45421;-71
2023/12/30 00:36:56;;;;;;;;;2.00;2.00;;;;;;;;5097391;27;45449;-71
2023/12/30 00:39:22;;;;;;;;;2.00;2.00;;;;;;;;5097325;27;45413;-71
2023/12/30 00:41:47;;;;;;;;;2.33;2.00;;;;;;;;5097288;27;45742;-72
2023/12/30 00:44:13;;;;;;;;;2.00;2.00;;;;;;;;5097683;27;45358;-71
2023/12/30 00:46:38;;;;;;;;;1.00;1.00;;;;;;;;5097703;27;45295;-71
2023/12/30 00:49:03;;;;;;;;;0.33;0.33;;;;;;;;5097452;27;45457;-71
2023/12/30 00:51:29;;;;;;;;;1.00;1.00;;;;;;;;5096904;27;45258;-71
2023/12/30 00:53:54;;;;;;;;;1.00;1.00;;;;;;;;5097070;27;45460;-71
2023/12/30 00:56:19;;;;;;;;;1.00;1.00;;;;;;;;5097183;27;45429;-71
2023/12/30 00:58:45;;;;;;;;;1.67;1.00;;;;;;;;5097370;27;45517;-72
2023/12/30 01:01:10;;;;;;;;;2.33;2.33;;;;;;;;5097297;27;45991;-71
2023/12/30 01:03:35;;;;;;;;;2.00;2.00;;;;;;;;5096933;27;45461;-71
2023/12/30 01:06:01;;;;;;;;;2.00;2.00;;;;;;;;5097107;27;45271;-71
2023/12/30 01:08:26;;;;;;;;;4.00;3.00;;;;;;;;5098137;27;45453;-71
2023/12/30 01:10:52;;;;;;;;;2.00;2.00;;;;;;;;5100391;27;45465;-71
2023/12/30 01:13:17;;;;;;;;;2.00;2.00;;;;;;;;5100356;27;45369;-71
2023/12/30 01:15:42;;;;;;;;;2.00;2.00;;;;;;;;5100941;27;45311;-71
2023/12/30 01:18:08;;;;;;;;;3.00;2.00;;;;;;;;5100621;27;45537;-71
2023/12/30 01:20:34;;;;;;;;;12.00;11.00;;;;;;;;5100232;27;45433;-71
2023/12/30 01:22:59;;;;;;;;;7.75;6.25;;;;;;;;5100285;27;45674;-71
2023/12/30 01:25:24;;;;;;;;;7.00;5.75;;;;;;;;5100370;27;45336;-71
2023/12/30 01:27:50;;;;;;;;;3.50;3.50;;;;;;;;5100492;27;45468;-71
2023/12/30 01:30:15;;;;;;;;;26.00;19.00;;;;;;;;5100474;27;45317;-71
2023/12/30 01:32:40;;;;;;;;;46.50;36.25;;;;;;;;5100766;27;45682;-71
2023/12/30 01:35:06;;;;;;;;;20.25;16.00;;;;;;;;5100114;27;45469;-71
2023/12/30 01:37:32;;;;;;;;;13.00;11.00;;;;;;;;5100337;27;45360;-71
2023/12/30 01:39:58;;;;;;;;;22.75;21.00;;;;;;;;5099854;27;45283;-71
2023/12/30 01:42:23;;;;;;;;;61.75;49.75;;;;;;;;5099604;27;45315;-71
2023/12/30 01:44:48;;;;;;;;;43.50;36.00;;;;;;;;5099956;27;45478;-71
2023/12/30 01:47:14;;;;;;;;;13.75;12.50;;;;;;;;5100513;27;45414;-71
2023/12/30 01:49:39;;;;;;;;;3.00;3.00;;;;;;;;5099679;27;45336;-72
2023/12/30 01:52:05;;;;;;;;;3.00;2.50;;;;;;;;5099809;27;45258;-71
2023/12/30 01:54:31;;;;;;;;;3.00;2.00;;;;;;;;5099798;27;45282;-71
2023/12/30 01:56:57;;;;;;;;;2.00;2.00;;;;;;;;5100021;27;45356;-71
2023/12/30 01:59:22;;;;;;;;;3.00;3.00;;;;;;;;5099530;27;46133;-71
2023/12/30 02:01:48;;;;;;;;;2.00;2.00;;;;;;;;5099520;27;45444;-71
2023/12/30 02:04:13;;;;;;;;;3.25;3.00;;;;;;;;5099856;27;45290;-71
2023/12/30 02:06:42;;;;;;;;;10.50;10.50;;;;;;;;5099696;27;45389;-71
2023/12/30 02:09:08;;;;;;;;;9.00;9.00;;;;;;;;5099327;27;45519;-71
2023/12/30 02:11:33;;;;;;;;;8.75;8.00;;;;;;;;5099169;27;45451;-71
2023/12/30 02:13:59;;;;;;;;;5.75;5.50;;;;;;;;5081034;27;45535;-71
2023/12/30 02:16:24;;;;;;;;;3.00;2.00;;;;;;;;5099813;27;45368;-71
2023/12/30 02:18:49;;;;;;;;;4.00;3.50;;;;;;;;5098673;27;45456;-71
2023/12/30 02:21:15;;;;;;;;;2.25;2.25;;;;;;;;5099803;27;45308;-72
2023/12/30 02:23:40;;;;;;;;;3.50;3.00;;;;;;;;5099366;27;45562;-72
2023/12/30 02:26:07;;;;;;;;;2.00;1.50;;;;;;;;5099701;27;45524;-72
2023/12/30 02:28:32;;;;;;;;;0.50;0.50;;;;;;;;5099106;27;46312;-72
2023/12/30 02:30:58;;;;;;;;;1.00;1.00;;;;;;;;5098828;27;45148;-72
2023/12/30 02:33:23;;;;;;;;;2.25;2.25;;;;;;;;5099227;27;45424;-72
2023/12/30 02:35:49;;;;;;;;;2.00;2.00;;;;;;;;5099907;27;46028;-72
2023/12/30 02:38:14;;;;;;;;;1.25;1.25;;;;;;;;5099499;27;46173;-72
2023/12/30 02:40:39;;;;;;;;;2.00;1.25;;;;;;;;5099270;27;45530;-72
2023/12/30 02:43:05;;;;;;;;;2.00;1.50;;;;;;;;5099281;27;45329;-72
2023/12/30 02:45:30;;;;;;;;;1.25;1.25;;;;;;;;5099296;27;45508;-72
2023/12/30 02:47:55;;;;;;;;;2.00;2.00;;;;;;;;5098737;27;45964;-72
2023/12/30 02:50:21;;;;;;;;;4.00;4.00;;;;;;;;5098765;27;45242;-72
2023/12/30 02:52:46;;;;;;;;;4.00;3.25;;;;;;;;5099422;27;45494;-70
2023/12/30 02:55:11;;;;;;;;;3.00;3.00;;;;;;;;5098960;27;45353;-71
2023/12/30 02:57:37;;;;;;;;;7.75;7.00;;;;;;;;5098707;27;45335;-71
2023/12/30 03:00:02;;;;;;;;;5.00;4.00;;;;;;;;5098585;27;45451;-71
2023/12/30 03:02:28;;;;;;;;;3.75;2.50;;;;;;;;5098872;27;45372;-71
2023/12/30 03:04:53;;;;;;;;;4.00;3.25;;;;;;;;5098944;27;45464;-71
2023/12/30 03:07:18;;;;;;;;;5.00;4.00;;;;;;;;5098897;27;45528;-71
2023/12/30 03:09:44;;;;;;;;;5.25;4.00;;;;;;;;5098519;27;45415;-70
2023/12/30 03:12:09;;;;;;;;;3.00;2.00;;;;;;;;5098723;27;45329;-71
2023/12/30 03:14:35;;;;;;;;;4.00;4.00;;;;;;;;5098833;27;45271;-71
2023/12/30 03:17:00;;;;;;;;;3.25;3.00;;;;;;;;5098263;27;46027;-71
2023/12/30 03:19:26;;;;;;;;;7.00;5.00;;;;;;;;5098509;27;45386;-71
2023/12/30 03:21:51;;;;;;;;;9.00;8.25;;;;;;;;5098811;27;45533;-70
2023/12/30 03:24:17;;;;;;;;;11.00;10.25;;;;;;;;5098826;27;45566;-71
2023/12/30 03:26:42;;;;;;;;;11.75;11.25;;;;;;;;5098448;27;45278;-71
2023/12/30 03:29:07;;;;;;;;;9.75;8.25;;;;;;;;5098481;27;45413;-71
2023/12/30 03:31:33;;;;;;;;;7.50;7.00;;;;;;;;5097473;27;45268;-71
2023/12/30 03:33:58;;;;;;;;;10.00;9.00;;;;;;;;5098402;27;45422;-71
2023/12/30 03:36:24;;;;;;;;;10.25;8.25;;;;;;;;5098113;27;46138;-71
2023/12/30 03:38:49;;;;;;;;;13.50;13.00;;;;;;;;5098471;27;45234;-71
2023/12/30 03:41:15;;;;;;;;;20.25;18.75;;;;;;;;5098197;27;45360;-71
2023/12/30 03:43:40;;;;;;;;;17.00;14.25;;;;;;;;5098391;27;46087;-71
2023/12/30 03:46:06;;;;;;;;;10.00;9.75;;;;;;;;5097915;27;45520;-70
2023/12/30 03:48:32;;;;;;;;;5.00;5.00;;;;;;;;5097729;27;45428;-71
2023/12/30 03:50:57;;;;;;;;;4.00;4.00;;;;;;;;5097947;27;45422;-71
2023/12/30 03:53:23;;;;;;;;;7.00;5.00;;;;;;;;5098311;27;45483;-71
2023/12/30 03:55:48;;;;;;;;;6.00;4.00;;;;;;;;5079409;27;45444;-71
2023/12/30 03:58:13;;;;;;;;;4.25;3.00;;;;;;;;5097779;27;45503;-71
2023/12/30 04:00:39;;;;;;;;;5.00;4.50;;;;;;;;5098120;27;45417;-71
2023/12/30 04:03:04;;;;;;;;;7.00;7.00;;;;;;;;5079918;27;45850;-71
2023/12/30 04:05:29;;;;;;;;;7.00;7.00;;;;;;;;5097760;27;46186;-71
2023/12/30 04:07:55;;;;;;;;;5.50;5.00;;;;;;;;5097862;27;45533;-71
2023/12/30 04:10:20;;;;;;;;;4.00;4.00;;;;;;;;5098129;27;45236;-71
2023/12/30 04:12:45;;;;;;;;;5.00;4.00;;;;;;;;5079529;27;45559;-71
2023/12/30 04:15:11;;;;;;;;;5.00;4.25;;;;;;;;5097404;27;45579;-71
2023/12/30 04:17:37;;;;;;;;;4.00;3.75;;;;;;;;5097576;27;45258;-71
2023/12/30 04:20:02;;;;;;;;;6.25;5.00;;;;;;;;5097680;27;45443;-71
2023/12/30 04:22:28;;;;;;;;;5.25;5.25;;;;;;;;5097782;27;45503;-71
2023/12/30 04:24:54;;;;;;;;;7.00;5.00;;;;;;;;5097671;27;46196;-71
2023/12/30 04:27:19;;;;;;;;;8.00;7.00;;;;;;;;5097563;27;45476;-71
2023/12/30 04:29:44;;;;;;;;;4.25;4.00;;;;;;;;5097537;27;45499;-71
2023/12/30 04:32:10;;;;;;;;;4.00;3.00;;;;;;;;5097525;27;45470;-71
2023/12/30 04:34:35;;;;;;;;;4.00;4.00;;;;;;;;5097316;27;46010;-71
2023/12/30 04:37:01;;;;;;;;;3.00;3.00;;;;;;;;5097435;27;45354;-71
2023/12/30 04:39:26;;;;;;;;;4.50;4.50;;;;;;;;5097753;27;45267;-71
2023/12/30 04:41:52;;;;;;;;;4.00;3.00;;;;;;;;5098104;27;45498;-70
2023/12/30 04:44:17;;;;;;;;;4.50;3.75;;;;;;;;5100832;27;45367;-70
2023/12/30 04:46:42;;;;;;;;;5.00;4.25;;;;;;;;5100797;27;45340;-71
2023/12/30 04:49:08;;;;;;;;;4.00;3.00;;;;;;;;5100905;27;45508;-71
2023/12/30 04:51:33;;;;;;;;;4.75;3.25;;;;;;;;5100928;27;45249;-71
2023/12/30 04:53:58;;;;;;;;;9.50;9.25;;;;;;;;5100421;27;45445;-71
2023/12/30 04:56:24;;;;;;;;;9.25;7.25;;;;;;;;5101111;27;45480;-71
2023/12/30 04:58:50;;;;;;;;;5.50;4.25;;;;;;;;5100971;27;45219;-70
2023/12/30 05:01:16;;;;;;;;;14.50;13.00;;;;;;;;5100944;27;45259;-71
2023/12/30 05:03:42;;;;;;;;;22.25;19.00;;;;;;;;5100608;27;45567;-70
2023/12/30 05:06:08;;;;;;;;;9.00;8.75;;;;;;;;5100650;27;45911;-70
2023/12/30 05:08:33;;;;;;;;;55.50;46.00;;;;;;;;5100541;27;45281;-71
2023/12/30 05:10:58;;;;;;;;;15.75;14.75;;;;;;;;5100854;27;45452;-71
2023/12/30 05:13:25;;;;;;;;;11.75;9.25;;;;;;;;5100917;27;46134;-71
2023/12/30 05:15:51;;;;;;;;;12.25;10.00;;;;;;;;5100511;27;45445;-71
2023/12/30 05:18:16;;;;;;;;;10.00;9.00;;;;;;;;5100590;27;45504;-70
2023/12/30 05:20:41;;;;;;;;;16.25;15.00;;;;;;;;5100804;27;45341;-71
2023/12/30 05:23:07;;;;;;;;;18.50;17.00;;;;;;;;5100408;27;45557;-71
2023/12/30 05:25:32;;;;;;;;;18.25;18.25;;;;;;;;5081956;27;45429;-71
2023/12/30 05:27:58;;;;;;;;;20.25;16.25;;;;;;;;5100963;27;45330;-71
2023/12/30 05:30:23;;;;;;;;;14.50;10.75;;;;;;;;5100487;27;45494;-71
2023/12/30 05:32:48;;;;;;;;;11.00;10.00;;;;;;;;5100231;27;46075;-70
2023/12/30 05:35:14;;;;;;;;;5.50;5.50;;;;;;;;5100219;27;45306;-71
2023/12/30 05:37:40;;;;;;;;;9.00;8.00;;;;;;;;5100622;27;45330;-71
2023/12/30 05:40:06;;;;;;;;;7.50;6.50;;;;;;;;5100607;27;45421;-71
2023/12/30 05:42:31;;;;;;;;;11.00;10.00;;;;;;;;5100125;27;46302;-71
2023/12/30 05:44:57;;;;;;;;;10.00;9.00;;;;;;;;5100372;27;45296;-71
2023/12/30 05:47:23;;;;;;;;;9.25;7.75;;;;;;;;5100226;27;45233;-70
2023/12/30 05:49:49;;;;;;;;;7.00;7.00;;;;;;;;5100195;27;45248;-71
2023/12/30 05:52:14;;;;;;;;;7.75;6.50;;;;;;;;5099760;27;45797;-70
2023/12/30 05:54:39;;;;;;;;;13.75;11.00;;;;;;;;5098873;27;45477;-70
2023/12/30 05:57:05;;;;;;;;;8.50;8.50;;;;;;;;5099842;27;45843;-71
2023/12/30 05:59:30;;;;;;;;;9.50;8.00;;;;;;;;5100269;27;45393;-71
2023/12/30 06:01:58;;;;;;;;;9.75;8.50;;;;;;;;5099994;27;45862;-70
2023/12/30 06:04:24;;;;;;;;;7.00;6.50;;;;;;;;5099797;27;45264;-71
2023/12/30 06:06:49;;;;;;;;;8.50;8.00;;;;;;;;5099787;27;45491;-70
2023/12/30 06:09:15;;;;;;;;;11.50;10.00;;;;;;;;5100007;27;45357;-71
2023/12/30 06:11:40;;;;;;;;;8.00;6.00;;;;;;;;5099543;27;45424;-71
2023/12/30 06:14:05;;;;;;;;;10.25;9.75;;;;;;;;5099663;27;45314;-71
2023/12/30 06:16:31;;;;;;;;;9.00;9.00;;;;;;;;5100067;27;45344;-71
2023/12/30 06:18:56;;;;;;;;;10.25;10.25;;;;;;;;5099709;27;45437;-70
2023/12/30 06:21:21;;;;;;;;;11.25;11.25;;;;;;;;5099406;27;45238;-71
2023/12/30 06:23:47;;;;;;;;;17.75;16.00;;;;;;;;5099541;27;45357;-70
2023/12/30 06:26:12;;;;;;;;;29.50;25.75;;;;;;;;5099679;27;45479;-71
2023/12/30 06:28:38;;;;;;;;;12.00;10.00;;;;;;;;5081434;27;45500;-71
2023/12/30 06:31:03;;;;;;;;;10.00;9.75;;;;;;;;5099160;27;45261;-71
2023/12/30 06:33:28;;;;;;;;;9.25;7.75;;;;;;;;5081221;27;45502;-70
2023/12/30 06:35:54;;;;;;;;;10.75;9.75;;;;;;;;5099454;27;45535;-71
2023/12/30 06:38:19;;;;;;;;;16.00;16.00;;;;;;;;5099669;27;45345;-71
2023/12/30 06:40:47;;;;;;;;;14.75;13.25;;;;;;;;5099259;27;46130;-70
2023/12/30 06:43:13;;;;;;;;;13.50;12.75;;;;;;;;5099218;27;45315;-71
2023/12/30 06:45:38;;;;;;;;;20.75;20.50;;;;;;;;5099335;27;45541;-71
2023/12/30 06:48:04;;;;;;;;;25.75;22.25;;;;;;;;5099433;27;45600;-71
2023/12/30 06:50:30;;;;;;;;;16.50;16.00;;;;;;;;5099262;27;45523;-71
2023/12/30 06:52:55;;;;;;;;;18.25;17.00;;;;;;;;5080631;27;45429;-71
2023/12/30 06:55:21;;;;;;;;;9.75;9.00;;;;;;;;5098925;27;45488;-70
2023/12/30 06:57:46;;;;;;;;;11.25;10.75;;;;;;;;5099196;27;45314;-71
2023/12/30 07:00:12;;;;;;;;;24.75;23.25;;;;;;;;5098753;27;45909;-71
2023/12/30 07:02:37;;;;;;;;;9.25;8.00;;;;;;;;5098899;27;45395;-71
2023/12/30 07:05:03;;;;;;;;;12.25;10.00;;;;;;;;5080880;27;45526;-71
2023/12/30 07:07:29;;;;;;;;;23.75;22.00;;;;;;;;5099075;27;45354;-71
2023/12/30 07:09:54;;;;;;;;;27.25;23.50;;;;;;;;5098535;27;45874;-71
2023/12/30 07:12:20;;;;;;;;;51.00;43.25;;;;;;;;5098677;27;45426;-70
2023/12/30 07:14:45;;;;;;;;;31.75;29.50;;;;;;;;5098729;27;45476;-71
2023/12/30 07:17:10;;;;;;;;;11.00;11.00;;;;;;;;5099024;27;45437;-71
2023/12/30 07:19:36;;;;;;;;;9.00;8.75;;;;;;;;5098542;27;45967;-71
2023/12/30 07:22:01;;;;;;;;;7.00;5.00;;;;;;;;5098872;27;45460;-71
2023/12/30 07:24:27;;;;;;;;;7.50;7.00;;;;;;;;5098484;27;45571;-70
2023/12/30 07:26:52;;;;;;;;;8.00;7.00;;;;;;;;5098731;27;45446;-71
2023/12/30 07:29:17;;;;;;;;;10.00;9.00;;;;;;;;5098261;27;45466;-71
2023/12/30 07:31:43;;;;;;;;;26.00;25.00;;;;;;;;5098253;27;45425;-71
2023/12/30 07:34:08;;;;;;;;;35.25;34.00;;;;;;;;5098589;27;45495;-70
2023/12/30 07:36:34;;;;;;;;;46.50;40.25;;;;;;;;5098947;27;46153;-71
2023/12/30 07:38:59;;;;;;;;;48.25;40.00;;;;;;;;5098079;27;45566;-71
2023/12/30 07:41:24;;;;;;;;;26.50;24.75;;;;;;;;5098137;27;45527;-71
2023/12/30 07:43:50;;;;;;;;;16.00;13.00;;;;;;;;5098266;27;45257;-70
2023/12/30 07:46:16;;;;;;;;;12.00;9.25;;;;;;;;5080032;27;45445;-71
2023/12/30 07:48:42;;;;;;;;;9.00;8.75;;;;;;;;5098011;27;45453;-71
2023/12/30 07:51:07;;;;;;;;;9.50;8.25;;;;;;;;5098346;27;45536;-71
2023/12/30 07:53:33;;;;;;;;;12.00;10.50;;;;;;;;5098160;27;45484;-71
2023/12/30 07:55:58;;;;;;;;;15.00;14.00;;;;;;;;5098155;27;45422;-71
2023/12/30 07:58:23;;;;;;;;;14.75;11.50;;;;;;;;5097588;27;46114;-71
2023/12/30 08:00:49;;;;;;;;;13.25;10.00;;;;;;;;5097887;27;45224;-71
2023/12/30 08:03:14;;;;;;;;;13.25;13.25;;;;;;;;5098198;27;45313;-71
2023/12/30 08:05:40;;;;;;;;;12.75;12.00;;;;;;;;5098305;27;45279;-71
2023/12/30 08:08:13;;;;;;;;;14.75;13.75;;;;;;;;5098118;27;45308;-71
2023/12/30 08:10:38;;;;;;;;;36.50;34.50;;;;;;;;5098086;27;45394;-71
2023/12/30 08:13:03;;;;;;;;;24.75;23.75;;;;;;;;5097894;27;45738;-71
2023/12/30 08:15:29;;;;;;;;;13.75;12.75;;;;;;;;5098182;27;45441;-71
2023/12/30 08:17:54;;;;;;;;;18.25;18.00;;;;;;;;5101463;27;46150;-70
2023/12/30 08:20:20;;;;;;;;;17.25;16.25;;;;;;;;5104564;27;45259;-76
2023/12/30 08:22:45;;;;;;;;;37.75;34.25;;;;;;;;5104479;27;45284;-71
2023/12/30 08:25:11;;;;;;;;;53.25;42.75;;;;;;;;5104522;27;45582;-70
2023/12/30 08:27:37;;;;;;;;;63.00;50.50;;;;;;;;5104536;27;45437;-73
2023/12/30 08:30:03;;;;;;;;;25.00;22.00;;;;;;;;5104236;27;45381;-76
2023/12/30 08:32:28;;;;;;;;;29.25;25.50;;;;;;;;5104386;27;45375;-71
2023/12/30 08:34:54;;;;;;;;;65.00;53.00;;;;;;;;5104483;27;45657;-71
2023/12/30 08:37:19;;;;;;;;;69.50;54.00;;;;;;;;5103988;27;45507;-71
2023/12/30 08:39:45;;;;;;;;;57.00;47.00;;;;;;;;5104068;27;45424;-70
2023/12/30 08:42:11;;;;;;;;;42.25;37.00;;;;;;;;5104150;27;45243;-71
2023/12/30 08:44:40;;;;;;;;;41.00;34.75;;;;;;;;5104834;27;45219;-71
2023/12/30 08:47:06;;;;;;;;;55.00;43.50;;;;;;;;5104381;27;45501;-71
2023/12/30 08:49:31;;;;;;;;;33.00;28.50;;;;;;;;5103928;27;45384;-71
2023/12/30 08:51:57;;;;;;;;;17.00;15.75;;;;;;;;5104116;27;45366;-71
2023/12/30 08:54:23;;;;;;;;;62.25;49.50;;;;;;;;5093710;27;45315;-71
2023/12/30 08:56:48;;;;;;;;;23.00;21.00;;;;;;;;5103850;27;46093;-71
2023/12/30 08:59:14;;;;;;;;;32.50;31.50;;;;;;;;5104075;27;45523;-71
2023/12/30 09:01:39;;;;;;;;;54.25;42.25;;;;;;;;5104502;27;45740;-70
2023/12/30 09:04:06;;;;;;;;;26.00;25.00;;;;;;;;5104248;27;45265;-70
2023/12/30 09:06:31;;;;;;;;;25.25;23.00;;;;;;;;5103688;27;46184;-71
2023/12/30 09:08:57;;;;;;;;;30.50;28.75;;;;;;;;5103911;27;45334;-71
2023/12/30 09:11:22;;;;;;;;;25.75;22.75;;;;;;;;5104016;27;45385;-71
2023/12/30 09:13:48;;;;;;;;;18.50;16.25;;;;;;;;5102675;27;45468;-71
2023/12/30 09:16:14;;;;;;;;;13.25;11.50;;;;;;;;5103291;27;46136;-72
2023/12/30 09:18:39;;;;;;;;;8.00;7.75;;;;;;;;5103120;27;45509;-78
2023/12/30 09:21:05;;;;;;;;;13.25;13.25;;;;;;;;5103062;27;45337;-72
2023/12/30 09:23:30;;;;;;;;;8.00;7.25;;;;;;;;5103349;27;45396;-71
2023/12/30 09:25:56;;;;;;;;;8.00;8.00;;;;;;;;5102799;27;46010;-70
2023/12/30 09:28:21;;;;;;;;;8.75;7.50;;;;;;;;5101747;27;45435;-71
2023/12/30 09:30:46;;;;;;;;;8.00;7.75;;;;;;;;5099760;27;45429;-70
2023/12/30 09:33:12;;;;;;;;;9.75;8.00;;;;;;;;5100240;27;45521;-71
2023/12/30 09:35:38;;;;;;;;;5.00;5.00;;;;;;;;5099997;27;45443;-71
2023/12/30 09:38:03;;;;;;;;;23.75;22.00;;;;;;;;5100141;27;45501;-70
2023/12/30 09:40:28;;;;;;;;;3.33;3.00;;;;;;;;5099821;27;46039;-71
2023/12/30 09:42:58;;;;;;;;;3.00;3.00;;;;;;;;5099915;27;45411;-71
2023/12/30 09:45:24;;;;;;;;;3.00;2.00;;;;;;;;5099835;27;46251;-71
2023/12/30 09:47:50;;;;;;;;;5.00;4.00;;;;;;;;5099830;27;45224;-71
2023/12/30 09:50:15;;;;;;;;;8.67;8.33;;;;;;;;5099822;27;45444;-71
2023/12/30 09:52:40;;;;;;;;;3.00;3.00;;;;;;;;5099129;27;45484;-71
2023/12/30 09:55:07;;;;;;;;;3.00;3.00;;;;;;;;5099258;27;45395;-71
2023/12/30 09:57:32;;;;;;;;;3.00;2.00;;;;;;;;5099453;27;45555;-71
2023/12/30 09:59:58;;;;;;;;;2.67;2.67;;;;;;;;5099686;27;45424;-80
2023/12/30 10:02:24;;;;;;;;;3.67;3.00;;;;;;;;5099962;27;45606;-71
2023/12/30 10:04:50;;;;;;;;;4.00;4.00;;;;;;;;5099463;27;45417;-71
2023/12/30 10:07:16;;;;;;;;;4.00;4.00;;;;;;;;5099814;27;45514;-71
2023/12/30 10:09:41;;;;;;;;;4.00;3.67;;;;;;;;5099816;27;45358;-71
2023/12/30 10:12:09;;;;;;;;;4.00;4.00;;;;;;;;5099637;27;45218;-71
2023/12/30 10:14:34;;;;;;;;;3.00;3.00;;;;;;;;5099165;27;46094;-78
2023/12/30 10:17:02;;;;;;;;;4.67;4.00;;;;;;;;5099130;27;45450;-71
2023/12/30 10:19:27;;;;;;;;;4.00;3.00;;;;;;;;5099380;27;45482;-71
2023/12/30 10:21:52;;;;;;;;;3.33;3.33;;;;;;;;5099176;27;45501;-72
2023/12/30 10:24:18;;;;;;;;;3.00;2.50;;;;;;;;5098981;27;45525;-71
2023/12/30 10:26:44;;;;;;;;;10.33;9.00;;;;;;;;5099281;27;45361;-73
2023/12/30 10:29:10;;;;;;;;;26.75;21.75;;;;;;;;5099258;27;45389;-71
2023/12/30 10:31:36;;;;;;;;;17.33;14.33;;;;;;;;5099423;27;45443;-71
2023/12/30 10:34:01;;;;;;;;;11.00;10.33;;;;;;;;5098819;27;45323;-72
2023/12/30 10:36:28;;;;;;;;;13.00;11.00;;;;;;;;5099159;27;45479;-71
2023/12/30 10:38:54;;;;;;;;;5.00;4.00;;;;;;;;5097930;27;45282;-71
2023/12/30 10:41:19;;;;;;;;;7.67;7.00;;;;;;;;5098987;27;45425;-81
2023/12/30 10:43:45;;;;;;;;;8.33;8.33;;;;;;;;5099124;27;45431;-71
2023/12/30 10:46:11;;;;;;;;;11.00;10.00;;;;;;;;5098354;27;45375;-72
2023/12/30 10:48:46;;;;;;;;;6.67;6.67;;;;;;;;5098500;27;45370;-71
2023/12/30 10:51:14;;;;;;;;;5.00;5.00;;;;;;;;5098746;27;45448;-71
2023/12/30 10:53:40;;;;;;;;;4.00;3.00;;;;;;;;5098539;27;45508;-71
2023/12/30 10:56:07;;;;;;;;;3.00;3.00;;;;;;;;5098736;27;45408;-72
2023/12/30 10:58:35;;;;;;;;;5.00;4.00;;;;;;;;5098875;27;45357;-72
2023/12/30 11:01:01;;;;;;;;;4.00;4.00;;;;;;;;5098955;27;45332;-72
2023/12/30 11:03:27;;;;;;;;;2.00;2.00;;;;;;;;5098357;27;45451;-72
2023/12/30 11:05:56;;;;;;;;;5.33;5.00;;;;;;;;5097987;27;45482;-71
2023/12/30 11:08:21;;;;;;;;;4.00;3.00;;;;;;;;5098380;27;45277;-71
2023/12/30 11:10:46;;;;;;;;;5.00;4.67;;;;;;;;5097213;27;45803;-71
2023/12/30 11:13:12;;;;;;;;;2.33;2.00;;;;;;;;5098284;27;45440;-71
2023/12/30 11:15:39;;;;;;;;;3.67;3.00;;;;;;;;5098390;27;45353;-73
2023/12/30 11:18:05;;;;;;;;;1.67;1.00;;;;;;;;5097203;27;45222;-72
2023/12/30 11:20:32;;;;;;;;;2.67;1.67;;;;;;;;5098124;27;45339;-71
2023/12/30 11:23:01;;;;;;;;;6.67;5.33;;;;;;;;5098156;27;45649;-71
2023/12/30 11:25:36;;;;;;;;;1.67;1.67;;;;;;;;5098291;27;45252;-71
2023/12/30 11:28:30;;;;;;;;;4.33;4.33;;;;;;;;5097988;27;45400;-71
2023/12/30 11:30:57;;;;;;;;;3.67;3.67;;;;;;;;5093051;27;45297;-71
2023/12/30 11:33:22;;;;;;;;;3.00;3.00;;;;;;;;5097934;27;45278;-72
2023/12/30 11:35:51;;;;;;;;;3.67;3.67;;;;;;;;5098430;27;45267;-72
2023/12/30 11:38:17;;;;;;;;;4.67;4.67;;;;;;;;5098575;27;45419;-72
2023/12/30 11:40:46;;;;;;;;;3.33;2.67;;;;;;;;5098059;27;45286;-72
2023/12/30 11:43:11;;;;;;;;;4.67;4.67;;;;;;;;5097782;27;46053;-71
2023/12/30 11:45:37;;;;;;;;;4.67;4.67;;;;;;;;5097440;27;45514;-72
2023/12/30 11:48:03;;;;;;;;;3.33;2.67;;;;;;;;5098090;27;45498;-72
2023/12/30 11:50:28;;;;;;;;;3.00;2.67;;;;;;;;5098218;27;45271;-72
2023/12/30 11:52:53;;;;;;;;;2.67;2.67;;;;;;;;5097003;27;45525;-72
2023/12/30 11:55:19;;;;;;;;;3.33;2.67;;;;;;;;5097962;27;45308;-72
2023/12/30 11:57:46;;;;;;;;;1.00;1.00;;;;;;;;5097849;27;45354;-72
2023/12/30 12:00:13;;;;;;;;;2.00;2.00;;;;;;;;5098081;27;45586;-74
2023/12/30 12:02:38;;;;;;;;;3.67;3.67;;;;;;;;5097413;27;45458;-72
2023/12/30 12:05:04;;;;;;;;;1.67;1.67;;;;;;;;5097403;27;45460;-74
2023/12/30 12:07:30;;;;;;;;;1.67;1.67;;;;;;;;5097486;27;45553;-76
2023/12/30 12:09:56;;;;;;;;;1.67;1.67;;;;;;;;5097526;27;45363;-79
2023/12/30 12:12:22;;;;;;;;;3.00;3.00;;;;;;;;5097772;27;45330;-73
2023/12/30 12:14:51;;;;;;;;;2.00;2.00;;;;;;;;5097881;27;45393;-73
2023/12/30 12:17:19;;;;;;;;;6.33;6.00;;;;;;;;5096254;27;45527;-72
2023/12/30 12:19:48;;;;;;;;;2.67;2.67;;;;;;;;5096136;27;45538;-73
2023/12/30 12:22:13;;;;;;;;;1.67;1.67;;;;;;;;5097060;27;46113;-73
2023/12/30 12:24:39;;;;;;;;;2.00;2.00;;;;;;;;5097338;27;45165;-73
2023/12/30 12:27:05;;;;;;;;;16.50;15.75;;;;;;;;5097254;27;45282;-73
2023/12/30 12:29:30;;;;;;;;;3.67;3.67;;;;;;;;5097405;27;45293;-72
2023/12/30 12:31:56;;;;;;;;;3.00;3.00;;;;;;;;5097156;27;46090;-72
2023/12/30 12:34:22;;;;;;;;;4.00;3.00;;;;;;;;5097150;27;45459;-72
2023/12/30 12:36:48;;;;;;;;;3.67;3.67;;;;;;;;5097179;27;45525;-73
2023/12/30 12:39:13;;;;;;;;;2.00;2.00;;;;;;;;5097036;27;45263;-73
2023/12/30 12:41:38;;;;;;;;;2.00;2.00;;;;;;;;5095383;27;45379;-72
2023/12/30 12:44:04;;;;;;;;;1.67;1.67;;;;;;;;5097252;27;45707;-72
2023/12/30 12:46:30;;;;;;;;;1.00;1.00;;;;;;;;5097517;27;45456;-73
2023/12/30 12:48:55;;;;;;;;;1.33;1.00;;;;;;;;5097525;27;45426;-73
2023/12/30 12:51:21;;;;;;;;;3.00;2.00;;;;;;;;5097272;27;46191;-73
2023/12/30 12:53:47;;;;;;;;;1.00;1.00;;;;;;;;5097231;27;45494;-72
2023/12/30 12:56:12;;;;;;;;;3.00;2.33;;;;;;;;5095867;27;45196;-72
2023/12/30 12:58:38;;;;;;;;;1.00;1.00;;;;;;;;5096073;27;45515;-73
2023/12/30 13:01:07;;;;;;;;;1.00;1.00;;;;;;;;5096872;27;45428;-72
2023/12/30 13:03:32;;;;;;;;;1.00;0.00;;;;;;;;5098214;27;45304;-72
2023/12/30 13:05:59;;;;;;;;;2.00;1.00;;;;;;;;5100540;27;45462;-72
2023/12/30 13:08:25;;;;;;;;;1.00;1.00;;;;;;;;5100992;27;45356;-72
2023/12/30 13:10:51;;;;;;;;;1.00;1.00;;;;;;;;5100053;27;45313;-73
2023/12/30 13:13:16;;;;;;;;;1.00;1.00;;;;;;;;5100703;27;45379;-73
2023/12/30 13:15:42;;;;;;;;;1.00;1.00;;;;;;;;5100524;27;45479;-73
2023/12/30 13:18:12;;;;;;;;;1.00;0.67;;;;;;;;5100960;27;45356;-72
2023/12/30 13:20:39;;;;;;;;;1.67;1.00;;;;;;;;5100131;27;46625;-72
2023/12/30 13:23:05;;;;;;;;;0.33;0.33;;;;;;;;5100375;27;45367;-73
2023/12/30 13:25:30;;;;;;;;;2.00;2.00;;;;;;;;5100221;27;45437;-73
2023/12/30 13:27:56;;;;;;;;;2.00;2.00;;;;;;;;5100742;27;45276;-82
2023/12/30 13:30:23;;;;;;;;;2.00;1.00;;;;;;;;5100103;27;46169;-73
2023/12/30 13:32:51;;;;;;;;;1.00;1.00;;;;;;;;5100072;27;45408;-73
2023/12/30 13:35:17;;;;;;;;;2.33;2.00;;;;;;;;5100158;27;45385;-73
2023/12/30 13:37:42;;;;;;;;;1.00;1.00;;;;;;;;5100388;27;45297;-72
2023/12/30 13:40:12;;;;;;;;;0.67;0.67;;;;;;;;5099707;27;46287;-73
2023/12/30 13:42:37;;;;;;;;;1.00;1.00;;;;;;;;5100020;27;45231;-73
2023/12/30 13:45:04;;;;;;;;;1.33;1.33;;;;;;;;5099998;27;45462;-73
2023/12/30 13:50:18;;;;;;;;;1.00;1.00;;;;;;;;5099708;27;45840;-72
2023/12/30 13:52:44;;;;;;;;;2.67;2.67;;;;;;;;5098230;27;45318;-72
2023/12/30 13:55:18;;;;;;;;;2.00;2.00;;;;;;;;5099481;27;45457;-72
2023/12/30 13:57:44;;;;;;;;;2.00;2.00;;;;;;;;5100059;27;45466;-72
2023/12/30 14:00:12;;;;;;;;;3.67;2.33;;;;;;;;5099548;27;46234;-72
2023/12/30 14:02:38;;;;;;;;;3.67;3.67;;;;;;;;5098108;27;45623;-72
2023/12/30 14:05:15;;;;;;;;;2.67;2.67;;;;;;;;5099637;27;45432;-72
2023/12/30 14:07:40;;;;;;;;;4.00;4.00;;;;;;;;5099541;27;45464;-75
2023/12/30 14:10:06;;;;;;;;;4.33;3.67;;;;;;;;5099456;27;45392;-73
2023/12/30 14:12:33;;;;;;;;;4.67;4.67;;;;;;;;5099360;27;45451;-72
2023/12/30 14:15:05;;;;;;;;;3.67;3.67;;;;;;;;5099355;27;45370;-72
2023/12/30 14:17:33;;;;;;;;;4.67;3.67;;;;;;;;5099577;27;45387;-77
2023/12/30 14:20:03;;;;;;;;;3.00;3.00;;;;;;;;5099619;27;46118;-72
2023/12/30 14:22:28;;;;;;;;;10.00;10.00;;;;;;;;5099691;27;46218;-72
2023/12/30 14:24:53;;;;;;;;;5.33;5.33;;;;;;;;5099259;27;45794;-72
2023/12/30 14:27:19;;;;;;;;;5.00;4.33;;;;;;;;5099701;27;45258;-72
2023/12/30 14:29:48;;;;;;;;;6.67;6.00;;;;;;;;5097884;27;45646;-73